Time;durP1;ratioP1;P1;durP2;ratioP2;P2;SDS_P1;SDS_P2;PMS_P1;PMS_P2;Temp;Humidity;BMP_temperature;BMP_pressure;BME280_temperature;BME280_humidity;BME280_pressure;Samples;Min_cycle;Max_cycle;Signal;HPM_P1;HPM_P2
2023/04/29 00:00:20;;;;;;;;;6.25;6.00;;;;;;;;5099046;27;45450;-77
2023/04/29 00:02:45;;;;;;;;;4.00;4.00;;;;;;;;5098955;27;46255;-77
2023/04/29 00:05:11;;;;;;;;;4.25;4.25;;;;;;;;5098478;27;45358;-77
2023/04/29 00:07:36;;;;;;;;;5.25;5.25;;;;;;;;5098827;27;45742;-76
2023/04/29 00:10:02;;;;;;;;;4.75;4.75;;;;;;;;5098714;27;45372;-77
2023/04/29 00:12:29;;;;;;;;;4.25;4.25;;;;;;;;5098266;27;46299;-77
2023/04/29 00:14:54;;;;;;;;;4.75;4.75;;;;;;;;5098382;27;45460;-77
2023/04/29 00:17:19;;;;;;;;;8.25;5.25;;;;;;;;5098506;27;45461;-77
2023/04/29 00:19:44;;;;;;;;;6.75;5.00;;;;;;;;5097935;27;45367;-77
2023/04/29 00:22:10;;;;;;;;;5.50;5.50;;;;;;;;5098535;27;45946;-77
2023/04/29 00:24:35;;;;;;;;;6.00;6.00;;;;;;;;5098765;27;45299;-77
2023/04/29 00:27:01;;;;;;;;;5.00;5.00;;;;;;;;5080426;27;45398;-76
2023/04/29 00:29:26;;;;;;;;;4.00;4.00;;;;;;;;5098841;27;45520;-77
2023/04/29 00:31:51;;;;;;;;;5.00;5.00;;;;;;;;5080267;27;48310;-78
2023/04/29 00:34:16;;;;;;;;;5.50;4.25;;;;;;;;5098740;27;45397;-77
2023/04/29 00:36:42;;;;;;;;;5.50;5.50;;;;;;;;5098624;27;45359;-77
2023/04/29 00:39:07;;;;;;;;;4.00;4.00;;;;;;;;5098428;27;45466;-77
2023/04/29 00:41:32;;;;;;;;;4.75;4.75;;;;;;;;5098395;27;45993;-78
2023/04/29 00:43:57;;;;;;;;;6.00;6.00;;;;;;;;5098298;27;45339;-77
2023/04/29 00:46:23;;;;;;;;;6.75;5.75;;;;;;;;5098367;27;45528;-77
2023/04/29 00:48:48;;;;;;;;;6.00;6.00;;;;;;;;5098139;27;45449;-77
2023/04/29 00:51:15;;;;;;;;;7.50;7.00;;;;;;;;5079654;27;46644;-77
2023/04/29 00:53:41;;;;;;;;;6.00;5.00;;;;;;;;5098051;27;45421;-77
2023/04/29 00:56:07;;;;;;;;;5.75;5.75;;;;;;;;5098286;27;45245;-77
2023/04/29 00:58:34;;;;;;;;;8.50;8.25;;;;;;;;5079816;27;45416;-77
2023/04/29 01:01:02;;;;;;;;;9.00;7.00;;;;;;;;5079499;27;48539;-76
2023/04/29 01:03:29;;;;;;;;;11.75;7.50;;;;;;;;5079321;27;45403;-76
2023/04/29 01:06:06;;;;;;;;;7.75;7.75;;;;;;;;5079594;27;45363;-77
2023/04/29 01:08:31;;;;;;;;;7.00;7.00;;;;;;;;5097781;27;45401;-77
2023/04/29 01:10:57;;;;;;;;;7.50;7.50;;;;;;;;5097260;27;45443;-77
2023/04/29 01:13:29;;;;;;;;;6.25;6.25;;;;;;;;5097728;27;45511;-77
2023/04/29 01:16:02;;;;;;;;;6.50;6.50;;;;;;;;5097858;27;45421;-77
2023/04/29 01:18:30;;;;;;;;;9.75;9.75;;;;;;;;5098126;27;45516;-77
2023/04/29 01:20:55;;;;;;;;;7.25;7.25;;;;;;;;5097028;27;46466;-78
2023/04/29 01:23:25;;;;;;;;;9.00;9.00;;;;;;;;5097592;27;45351;-78
2023/04/29 01:25:50;;;;;;;;;7.75;7.75;;;;;;;;5097874;27;45385;-77
2023/04/29 01:28:34;;;;;;;;;8.00;6.75;;;;;;;;5097629;27;45385;-78
2023/04/29 01:31:05;;;;;;;;;6.25;6.25;;;;;;;;5097334;27;45485;-77
2023/04/29 01:33:42;;;;;;;;;6.50;6.50;;;;;;;;5097325;27;45369;-77
2023/04/29 01:36:26;;;;;;;;;7.75;7.75;;;;;;;;5097671;27;45307;-77
2023/04/29 01:39:06;;;;;;;;;6.75;6.75;;;;;;;;5097664;27;45443;-77
2023/04/29 01:41:38;;;;;;;;;6.00;6.00;;;;;;;;5097569;27;45362;-77
2023/04/29 01:44:06;;;;;;;;;6.25;6.00;;;;;;;;5078952;27;45948;-77
2023/04/29 01:46:32;;;;;;;;;8.25;7.25;;;;;;;;5097561;27;45476;-77
2023/04/29 01:48:57;;;;;;;;;6.25;6.25;;;;;;;;5097780;27;45339;-78
2023/04/29 01:51:23;;;;;;;;;8.00;8.00;;;;;;;;5097999;27;45579;-76
2023/04/29 01:53:48;;;;;;;;;6.00;6.00;;;;;;;;5080417;27;45414;-76
2023/04/29 01:56:13;;;;;;;;;13.25;9.00;;;;;;;;5098349;27;45411;-76
2023/04/29 01:58:38;;;;;;;;;10.25;7.00;;;;;;;;5096969;27;45362;-76
2023/04/29 02:01:04;;;;;;;;;6.00;6.00;;;;;;;;5096106;27;45453;-75
2023/04/29 02:03:29;;;;;;;;;8.00;8.00;;;;;;;;5096960;27;45663;-76
2023/04/29 02:05:54;;;;;;;;;6.25;5.50;;;;;;;;5096917;27;45438;-76
2023/04/29 02:08:20;;;;;;;;;7.75;7.75;;;;;;;;5097146;27;45336;-76
2023/04/29 02:10:55;;;;;;;;;5.25;5.25;;;;;;;;5096792;27;45532;-76
2023/04/29 02:13:20;;;;;;;;;9.25;8.50;;;;;;;;5096891;27;45327;-76
2023/04/29 02:15:45;;;;;;;;;9.25;7.75;;;;;;;;5096625;27;45733;-75
2023/04/29 02:18:10;;;;;;;;;7.25;6.25;;;;;;;;5096721;27;45373;-77
2023/04/29 02:20:36;;;;;;;;;9.00;8.00;;;;;;;;5096232;27;46566;-76
2023/04/29 02:23:01;;;;;;;;;34.75;31.25;;;;;;;;5096411;27;45308;-76
2023/04/29 02:25:26;;;;;;;;;35.50;33.00;;;;;;;;5078371;27;45411;-77
2023/04/29 02:27:51;;;;;;;;;34.75;31.00;;;;;;;;5096764;27;45334;-77
2023/04/29 02:30:17;;;;;;;;;34.25;26.00;;;;;;;;5096361;27;46097;-77
2023/04/29 02:32:42;;;;;;;;;24.75;22.50;;;;;;;;5096331;27;45558;-77
2023/04/29 02:35:07;;;;;;;;;28.00;26.75;;;;;;;;5096779;27;45318;-76
2023/04/29 02:37:33;;;;;;;;;30.75;25.25;;;;;;;;5096078;27;45421;-77
2023/04/29 02:39:58;;;;;;;;;24.25;23.25;;;;;;;;5096281;27;45365;-78
2023/04/29 02:42:23;;;;;;;;;19.75;19.25;;;;;;;;5096159;27;45273;-77
2023/04/29 02:44:49;;;;;;;;;17.50;17.50;;;;;;;;5096500;27;45378;-77
2023/04/29 02:47:14;;;;;;;;;21.50;21.50;;;;;;;;5096222;27;45451;-77
2023/04/29 02:49:39;;;;;;;;;14.75;14.75;;;;;;;;5077463;27;47538;-77
2023/04/29 02:52:04;;;;;;;;;15.00;12.25;;;;;;;;5096269;27;45409;-76
2023/04/29 02:54:30;;;;;;;;;14.00;14.00;;;;;;;;5096379;27;45320;-77
2023/04/29 02:56:56;;;;;;;;;16.75;15.50;;;;;;;;5096143;27;45504;-76
2023/04/29 02:59:21;;;;;;;;;13.25;13.25;;;;;;;;5077873;27;45371;-76
2023/04/29 03:01:46;;;;;;;;;14.00;12.75;;;;;;;;5095950;27;45446;-76
2023/04/29 03:04:12;;;;;;;;;9.25;8.75;;;;;;;;5096155;27;45522;-78
2023/04/29 03:06:37;;;;;;;;;14.00;11.75;;;;;;;;5077694;27;45360;-76
2023/04/29 03:09:02;;;;;;;;;14.00;13.75;;;;;;;;5096223;27;45492;-77
2023/04/29 03:11:28;;;;;;;;;14.00;11.25;;;;;;;;5088919;27;45450;-77
2023/04/29 03:13:53;;;;;;;;;11.25;11.25;;;;;;;;5091893;27;45408;-77
2023/04/29 03:16:18;;;;;;;;;12.50;10.75;;;;;;;;5095052;27;45465;-76
2023/04/29 03:18:44;;;;;;;;;11.00;10.00;;;;;;;;5091122;27;45510;-77
2023/04/29 03:21:09;;;;;;;;;10.50;10.50;;;;;;;;5094776;27;45365;-77
2023/04/29 03:23:34;;;;;;;;;14.50;12.50;;;;;;;;5095264;27;45392;-77
2023/04/29 03:26:00;;;;;;;;;11.75;10.50;;;;;;;;5077279;27;45370;-77
2023/04/29 03:28:25;;;;;;;;;11.50;11.50;;;;;;;;5095964;27;46027;-77
2023/04/29 03:30:50;;;;;;;;;9.00;9.00;;;;;;;;5095849;27;45330;-77
2023/04/29 03:33:15;;;;;;;;;9.00;8.00;;;;;;;;5077539;27;45394;-77
2023/04/29 03:35:41;;;;;;;;;12.75;12.75;;;;;;;;5095727;27;45362;-77
2023/04/29 03:38:06;;;;;;;;;10.75;10.75;;;;;;;;5095745;27;46191;-77
2023/04/29 03:40:31;;;;;;;;;8.50;8.50;;;;;;;;5095801;27;45418;-77
2023/04/29 03:42:56;;;;;;;;;8.00;7.75;;;;;;;;5095480;27;45351;-76
2023/04/29 03:45:22;;;;;;;;;11.00;8.25;;;;;;;;5095478;27;45390;-77
2023/04/29 03:47:47;;;;;;;;;9.00;9.00;;;;;;;;5095031;27;45600;-77
2023/04/29 03:50:12;;;;;;;;;11.25;9.50;;;;;;;;5060307;27;45418;-77
2023/04/29 03:52:37;;;;;;;;;8.50;8.50;;;;;;;;5095831;27;45299;-76
2023/04/29 03:55:03;;;;;;;;;8.75;8.50;;;;;;;;5095447;27;45347;-77
2023/04/29 03:57:28;;;;;;;;;12.25;11.75;;;;;;;;5095247;27;46140;-76
2023/04/29 03:59:53;;;;;;;;;10.75;10.75;;;;;;;;5077051;27;45614;-77
2023/04/29 04:02:18;;;;;;;;;9.00;9.00;;;;;;;;5095136;27;45477;-76
2023/04/29 04:04:44;;;;;;;;;11.50;10.00;;;;;;;;5095397;27;45449;-77
2023/04/29 04:07:10;;;;;;;;;13.75;13.25;;;;;;;;5076547;27;46268;-77
2023/04/29 04:09:35;;;;;;;;;10.50;10.50;;;;;;;;5095133;27;45389;-76
2023/04/29 04:12:01;;;;;;;;;11.25;11.25;;;;;;;;5095117;27;45338;-76
2023/04/29 04:14:26;;;;;;;;;11.00;10.00;;;;;;;;5094895;27;45362;-77
2023/04/29 04:16:51;;;;;;;;;13.50;11.75;;;;;;;;5094543;27;45948;-77
2023/04/29 04:19:16;;;;;;;;;11.50;11.50;;;;;;;;5095231;27;45489;-77
2023/04/29 04:21:42;;;;;;;;;11.25;11.25;;;;;;;;5094931;27;45456;-77
2023/04/29 04:24:07;;;;;;;;;10.75;10.75;;;;;;;;5096720;27;45237;-77
2023/04/29 04:26:32;;;;;;;;;10.50;10.25;;;;;;;;5098397;27;45443;-77
2023/04/29 04:28:57;;;;;;;;;14.00;12.50;;;;;;;;5098433;27;45344;-77
2023/04/29 04:31:23;;;;;;;;;13.25;12.25;;;;;;;;5079653;27;45437;-77
2023/04/29 04:33:48;;;;;;;;;13.50;12.00;;;;;;;;5098625;27;45401;-77
2023/04/29 04:36:13;;;;;;;;;13.25;13.25;;;;;;;;5098681;27;45471;-78
2023/04/29 04:38:38;;;;;;;;;15.75;14.00;;;;;;;;5098455;27;45358;-77
2023/04/29 04:41:05;;;;;;;;;11.50;11.50;;;;;;;;5098453;27;45349;-77
2023/04/29 04:43:30;;;;;;;;;15.00;14.25;;;;;;;;5098197;27;45475;-77
2023/04/29 04:45:56;;;;;;;;;15.50;13.75;;;;;;;;5097768;27;47276;-77
2023/04/29 04:48:21;;;;;;;;;15.75;14.50;;;;;;;;5098338;27;45272;-76
2023/04/29 04:50:46;;;;;;;;;10.75;9.50;;;;;;;;5098408;27;45399;-76
2023/04/29 04:53:11;;;;;;;;;15.00;14.00;;;;;;;;5098478;27;45446;-77
2023/04/29 04:55:37;;;;;;;;;15.50;14.75;;;;;;;;5098121;27;46021;-77
2023/04/29 04:58:02;;;;;;;;;17.50;12.75;;;;;;;;5098414;27;45375;-77
2023/04/29 05:00:27;;;;;;;;;14.00;13.75;;;;;;;;5099330;27;45253;-77
2023/04/29 05:02:52;;;;;;;;;12.75;12.75;;;;;;;;5099350;27;45450;-77
2023/04/29 05:05:18;;;;;;;;;10.25;10.25;;;;;;;;5099192;27;45458;-78
2023/04/29 05:07:43;;;;;;;;;12.75;11.25;;;;;;;;5099759;27;45367;-76
2023/04/29 05:10:08;;;;;;;;;12.75;12.50;;;;;;;;5099413;27;45405;-76
2023/04/29 05:12:34;;;;;;;;;10.25;9.00;;;;;;;;5081860;27;45598;-76
2023/04/29 05:14:59;;;;;;;;;15.75;13.00;;;;;;;;5098600;27;47330;-77
2023/04/29 05:17:24;;;;;;;;;13.50;13.00;;;;;;;;5098100;27;45392;-78
2023/04/29 05:19:50;;;;;;;;;16.25;15.00;;;;;;;;5080078;27;45371;-77
2023/04/29 05:22:15;;;;;;;;;17.00;13.75;;;;;;;;5079451;27;45386;-77
2023/04/29 05:24:40;;;;;;;;;15.50;15.50;;;;;;;;5097700;27;46150;-76
2023/04/29 05:27:05;;;;;;;;;15.00;13.75;;;;;;;;5079139;27;45414;-77
2023/04/29 05:29:31;;;;;;;;;15.75;13.25;;;;;;;;5097837;27;45471;-77
2023/04/29 05:31:56;;;;;;;;;9.50;9.50;;;;;;;;5097757;27;45395;-76
2023/04/29 05:34:21;;;;;;;;;9.25;7.50;;;;;;;;5097261;27;46330;-76
2023/04/29 05:36:47;;;;;;;;;14.00;13.25;;;;;;;;5097321;27;45352;-76
2023/04/29 05:39:12;;;;;;;;;13.50;9.75;;;;;;;;5097627;27;45400;-76
2023/04/29 05:41:37;;;;;;;;;15.50;13.00;;;;;;;;5078861;27;45510;-76
2023/04/29 05:44:02;;;;;;;;;15.75;14.50;;;;;;;;5097174;27;45597;-78
2023/04/29 05:46:27;;;;;;;;;10.00;9.75;;;;;;;;5097360;27;45438;-79
2023/04/29 05:48:53;;;;;;;;;16.00;13.00;;;;;;;;5079199;27;45476;-79
2023/04/29 05:51:18;;;;;;;;;14.00;14.00;;;;;;;;5097575;27;45397;-79
2023/04/29 05:53:43;;;;;;;;;13.50;13.50;;;;;;;;5096866;27;45481;-78
2023/04/29 05:56:08;;;;;;;;;11.25;10.75;;;;;;;;5096941;27;45488;-79
2023/04/29 05:58:34;;;;;;;;;11.00;11.00;;;;;;;;5079175;27;45471;-79
2023/04/29 06:01:00;;;;;;;;;12.00;11.00;;;;;;;;5079013;27;45524;-78
2023/04/29 06:03:25;;;;;;;;;14.75;14.50;;;;;;;;5097248;27;45851;-79
2023/04/29 06:05:50;;;;;;;;;10.75;9.50;;;;;;;;5097375;27;45389;-78
2023/04/29 06:08:16;;;;;;;;;13.00;11.75;;;;;;;;5096966;27;45509;-78
2023/04/29 06:10:41;;;;;;;;;15.00;13.00;;;;;;;;5096921;27;45307;-79
2023/04/29 06:13:06;;;;;;;;;11.50;9.75;;;;;;;;5097123;27;46133;-78
2023/04/29 06:15:31;;;;;;;;;12.00;11.00;;;;;;;;5096503;27;45193;-79
2023/04/29 06:17:56;;;;;;;;;11.00;11.00;;;;;;;;5097218;27;45401;-78
2023/04/29 06:20:22;;;;;;;;;11.25;11.00;;;;;;;;5097070;27;45364;-78
2023/04/29 06:22:48;;;;;;;;;11.00;11.00;;;;;;;;5096780;27;46468;-79
2023/04/29 06:25:13;;;;;;;;;11.75;11.00;;;;;;;;5097264;27;45330;-78
2023/04/29 06:27:38;;;;;;;;;14.50;11.25;;;;;;;;5097353;27;45324;-79
2023/04/29 06:30:04;;;;;;;;;15.50;15.50;;;;;;;;5096617;27;45547;-77
2023/04/29 06:32:29;;;;;;;;;11.50;11.25;;;;;;;;5096696;27;45528;-81
2023/04/29 06:34:54;;;;;;;;;10.25;8.25;;;;;;;;5096775;27;45331;-80
2023/04/29 06:37:20;;;;;;;;;10.25;9.75;;;;;;;;5078494;27;45387;-80
2023/04/29 06:39:45;;;;;;;;;15.75;11.00;;;;;;;;5096561;27;45404;-80
2023/04/29 06:42:10;;;;;;;;;11.00;9.75;;;;;;;;5096487;27;46334;-80
2023/04/29 06:44:35;;;;;;;;;15.50;14.75;;;;;;;;5096843;27;45393;-80
2023/04/29 06:47:01;;;;;;;;;16.75;14.25;;;;;;;;5096112;27;45552;-80
2023/04/29 06:49:26;;;;;;;;;17.00;15.00;;;;;;;;5096618;27;45359;-80
2023/04/29 06:51:51;;;;;;;;;15.50;14.25;;;;;;;;5096280;27;45685;-80
2023/04/29 06:54:16;;;;;;;;;18.00;15.75;;;;;;;;5095937;27;45547;-80
2023/04/29 06:56:41;;;;;;;;;20.25;16.75;;;;;;;;5096326;27;45297;-80
2023/04/29 06:59:07;;;;;;;;;21.50;21.50;;;;;;;;5096363;27;45309;-81
2023/04/29 07:01:32;;;;;;;;;27.00;22.25;;;;;;;;5095510;27;46166;-81
2023/04/29 07:03:57;;;;;;;;;23.50;22.75;;;;;;;;5095970;27;45366;-80
2023/04/29 07:06:22;;;;;;;;;23.50;22.75;;;;;;;;5096313;27;45272;-80
2023/04/29 07:08:48;;;;;;;;;25.50;22.25;;;;;;;;5077473;27;45485;-80
2023/04/29 07:11:13;;;;;;;;;25.75;23.50;;;;;;;;5095951;27;47574;-81
2023/04/29 07:13:38;;;;;;;;;26.00;25.00;;;;;;;;5095883;27;45325;-81
2023/04/29 07:16:03;;;;;;;;;35.00;26.00;;;;;;;;5095954;27;45377;-80
2023/04/29 07:18:29;;;;;;;;;23.50;21.75;;;;;;;;5096269;27;45516;-80
2023/04/29 07:20:54;;;;;;;;;29.50;27.50;;;;;;;;5095833;27;46025;-81
2023/04/29 07:23:20;;;;;;;;;20.50;17.75;;;;;;;;5095789;27;45403;-80
2023/04/29 07:25:45;;;;;;;;;21.75;19.75;;;;;;;;5096017;27;45313;-80
2023/04/29 07:28:10;;;;;;;;;28.25;22.50;;;;;;;;5095746;27;45275;-81
2023/04/29 07:30:35;;;;;;;;;23.75;22.00;;;;;;;;5095833;27;46498;-81
2023/04/29 07:33:01;;;;;;;;;26.75;25.50;;;;;;;;5096154;27;45181;-80
2023/04/29 07:35:26;;;;;;;;;22.50;19.50;;;;;;;;5096101;27;45434;-81
2023/04/29 07:37:51;;;;;;;;;34.25;30.50;;;;;;;;5095660;27;45629;-80
2023/04/29 07:40:17;;;;;;;;;30.25;25.50;;;;;;;;5095766;27;46043;-80
2023/04/29 07:42:42;;;;;;;;;29.00;28.25;;;;;;;;5096027;27;45306;-81
2023/04/29 07:45:08;;;;;;;;;26.50;24.50;;;;;;;;5095815;27;45334;-81
2023/04/29 07:47:33;;;;;;;;;20.75;19.50;;;;;;;;5096083;27;45432;-81
2023/04/29 07:49:58;;;;;;;;;34.50;30.00;;;;;;;;5095189;27;45461;-81
2023/04/29 07:52:23;;;;;;;;;33.00;30.00;;;;;;;;5059955;27;46165;-80
2023/04/29 07:54:48;;;;;;;;;34.00;31.50;;;;;;;;5096028;27;45369;-81
2023/04/29 07:57:14;;;;;;;;;33.50;28.50;;;;;;;;5095793;27;45425;-80
2023/04/29 07:59:39;;;;;;;;;31.50;29.25;;;;;;;;5079273;27;45531;-80
2023/04/29 08:02:05;;;;;;;;;27.25;26.50;;;;;;;;5080924;27;45470;-79
2023/04/29 08:04:30;;;;;;;;;37.75;32.75;;;;;;;;5099553;27;45448;-80
2023/04/29 08:06:55;;;;;;;;;36.25;30.75;;;;;;;;5098969;27;45402;-82
2023/04/29 08:09:20;;;;;;;;;36.50;30.50;;;;;;;;5100341;27;45378;-84
2023/04/29 08:11:46;;;;;;;;;27.00;25.50;;;;;;;;5082769;27;45410;-82
2023/04/29 08:14:11;;;;;;;;;32.25;30.25;;;;;;;;5084982;27;45398;-83
2023/04/29 08:16:36;;;;;;;;;32.00;26.00;;;;;;;;5107047;27;45339;-84
2023/04/29 08:19:01;;;;;;;;;34.25;30.00;;;;;;;;5087228;27;47570;-83
2023/04/29 08:21:27;;;;;;;;;34.50;31.00;;;;;;;;5099126;27;45448;-83
2023/04/29 08:23:53;;;;;;;;;29.75;27.50;;;;;;;;5099461;27;45401;-82
2023/04/29 08:26:18;;;;;;;;;26.75;25.25;;;;;;;;5098861;27;45456;-82
2023/04/29 08:28:43;;;;;;;;;37.00;31.00;;;;;;;;5098859;27;45491;-82
2023/04/29 08:31:15;;;;;;;;;30.75;29.25;;;;;;;;5098417;27;45397;-83
2023/04/29 08:33:41;;;;;;;;;35.00;33.00;;;;;;;;5098603;27;45347;-83
2023/04/29 08:36:07;;;;;;;;;39.75;33.50;;;;;;;;5098279;27;45304;-82
2023/04/29 08:38:32;;;;;;;;;38.00;32.25;;;;;;;;5098558;27;45391;-82
2023/04/29 08:40:57;;;;;;;;;32.00;31.00;;;;;;;;5100024;27;45441;-82
2023/04/29 08:43:23;;;;;;;;;36.25;33.25;;;;;;;;5098316;27;45425;-82
2023/04/29 08:45:48;;;;;;;;;29.25;26.00;;;;;;;;5098737;27;45373;-83
2023/04/29 08:48:15;;;;;;;;;32.75;30.25;;;;;;;;5098354;27;46452;-83
2023/04/29 08:50:40;;;;;;;;;37.75;29.75;;;;;;;;5097959;27;45365;-83
2023/04/29 08:53:09;;;;;;;;;32.50;27.75;;;;;;;;5098176;27;45470;-82
2023/04/29 08:55:35;;;;;;;;;30.25;30.25;;;;;;;;5080020;27;45490;-83
2023/04/29 08:58:01;;;;;;;;;32.25;30.75;;;;;;;;5080001;27;47207;-83
2023/04/29 09:00:26;;;;;;;;;32.00;29.75;;;;;;;;5098531;27;45414;-82
2023/04/29 09:02:55;;;;;;;;;39.00;34.50;;;;;;;;5098451;27;45365;-83
2023/04/29 09:05:20;;;;;;;;;30.75;28.25;;;;;;;;5097770;27;45529;-82
2023/04/29 09:07:46;;;;;;;;;35.75;32.25;;;;;;;;5079628;27;45340;-82
2023/04/29 09:10:11;;;;;;;;;33.50;29.25;;;;;;;;5097714;27;45371;-82
2023/04/29 09:12:37;;;;;;;;;32.50;27.75;;;;;;;;5079760;27;45383;-83
2023/04/29 09:15:03;;;;;;;;;51.75;39.50;;;;;;;;5079844;27;45519;-82
2023/04/29 09:17:47;;;;;;;;;36.50;32.50;;;;;;;;5080080;27;46162;-82
2023/04/29 09:20:21;;;;;;;;;37.25;33.25;;;;;;;;5098451;27;45257;-82
2023/04/29 09:22:47;;;;;;;;;37.25;32.25;;;;;;;;5079652;27;45361;-82
2023/04/29 09:25:12;;;;;;;;;38.00;34.00;;;;;;;;5079895;27;45436;-82
2023/04/29 09:27:38;;;;;;;;;40.25;34.50;;;;;;;;5097438;27;45431;-82
2023/04/29 09:30:03;;;;;;;;;35.00;32.00;;;;;;;;5079523;27;45579;-82
2023/04/29 09:32:28;;;;;;;;;37.00;33.00;;;;;;;;5098505;27;45298;-83
2023/04/29 09:34:53;;;;;;;;;43.75;35.75;;;;;;;;5098392;27;45345;-83
2023/04/29 09:37:23;;;;;;;;;38.00;35.25;;;;;;;;5098079;27;46318;-83
2023/04/29 09:39:48;;;;;;;;;39.00;33.50;;;;;;;;5097911;27;45436;-82
2023/04/29 09:42:14;;;;;;;;;42.00;35.00;;;;;;;;5097612;27;45489;-82
2023/04/29 09:44:40;;;;;;;;;38.75;33.00;;;;;;;;5097312;27;45441;-82
2023/04/29 09:47:06;;;;;;;;;42.75;35.50;;;;;;;;5097428;27;47383;-81
2023/04/29 09:49:32;;;;;;;;;38.25;30.75;;;;;;;;5096981;27;45453;-82
2023/04/29 09:52:01;;;;;;;;;40.50;33.75;;;;;;;;5097712;27;45410;-81
2023/04/29 09:54:27;;;;;;;;;42.25;35.25;;;;;;;;5097724;27;45445;-82
2023/04/29 09:56:53;;;;;;;;;37.00;32.50;;;;;;;;5097147;27;46293;-83
2023/04/29 09:59:19;;;;;;;;;36.75;33.25;;;;;;;;5097553;27;45413;-81
2023/04/29 10:01:48;;;;;;;;;36.00;30.00;;;;;;;;5097369;27;45302;-82
2023/04/29 10:04:14;;;;;;;;;38.75;32.25;;;;;;;;5097032;27;45308;-82
2023/04/29 10:06:41;;;;;;;;;37.75;33.50;;;;;;;;5097205;27;46623;-83
2023/04/29 10:09:07;;;;;;;;;25.25;25.25;;;;;;;;5078793;27;45421;-82
2023/04/29 10:11:33;;;;;;;;;33.50;28.25;;;;;;;;5097511;27;45561;-83
2023/04/29 10:13:58;;;;;;;;;24.00;24.00;;;;;;;;5078520;27;45554;-82
2023/04/29 10:16:28;;;;;;;;;32.75;30.00;;;;;;;;5097057;27;46629;-82
2023/04/29 10:18:55;;;;;;;;;36.25;31.50;;;;;;;;5096648;27;45332;-82
2023/04/29 10:21:23;;;;;;;;;38.00;33.00;;;;;;;;5095933;27;45500;-82
2023/04/29 10:23:49;;;;;;;;;31.50;30.50;;;;;;;;5096975;27;45462;-82
2023/04/29 10:26:15;;;;;;;;;30.75;27.75;;;;;;;;5096166;27;45636;-82
2023/04/29 10:28:42;;;;;;;;;34.75;31.00;;;;;;;;5096826;27;45360;-82
2023/04/29 10:31:07;;;;;;;;;26.50;25.50;;;;;;;;5096697;27;45356;-82
2023/04/29 10:33:34;;;;;;;;;28.50;27.00;;;;;;;;5096658;27;45535;-82
2023/04/29 10:36:00;;;;;;;;;32.25;30.75;;;;;;;;5078446;27;47245;-82
2023/04/29 10:38:28;;;;;;;;;27.25;25.50;;;;;;;;5096509;27;45549;-83
2023/04/29 10:40:57;;;;;;;;;24.25;21.50;;;;;;;;5096392;27;45564;-82
2023/04/29 10:43:25;;;;;;;;;28.50;27.75;;;;;;;;5083684;27;45644;-83
2023/04/29 10:46:11;;;;;;;;;30.00;27.25;;;;;;;;5096917;27;45480;-83
2023/04/29 10:48:36;;;;;;;;;25.50;22.25;;;;;;;;5073366;27;45514;-83
2023/04/29 10:51:02;;;;;;;;;32.75;28.00;;;;;;;;5097672;27;45419;-81
2023/04/29 10:53:28;;;;;;;;;20.75;20.50;;;;;;;;5102062;27;45446;-82
2023/04/29 10:55:59;;;;;;;;;30.50;28.00;;;;;;;;5094666;27;46255;-84
2023/04/29 10:58:39;;;;;;;;;31.00;27.50;;;;;;;;5082120;27;46059;-81
2023/04/29 11:01:06;;;;;;;;;24.50;24.50;;;;;;;;5107148;27;45442;-80
2023/04/29 11:03:59;;;;;;;;;22.50;21.75;;;;;;;;5091651;27;45419;-81
2023/04/29 11:06:44;;;;;;;;;24.75;23.00;;;;;;;;5102396;27;45461;-80
2023/04/29 11:09:13;;;;;;;;;32.25;30.50;;;;;;;;5106289;27;45339;-80
2023/04/29 11:11:44;;;;;;;;;28.00;25.50;;;;;;;;5109255;27;45434;-81
2023/04/29 11:14:11;;;;;;;;;29.00;25.75;;;;;;;;5098613;27;45500;-81
2023/04/29 11:16:36;;;;;;;;;25.50;24.25;;;;;;;;5093057;27;46560;-80
2023/04/29 11:19:05;;;;;;;;;26.75;25.75;;;;;;;;5081341;27;45353;-80
2023/04/29 11:21:32;;;;;;;;;26.25;23.25;;;;;;;;5082413;27;45479;-79
2023/04/29 11:23:58;;;;;;;;;18.50;12.50;;;;;;;;5111822;27;45482;-80
2023/04/29 11:26:23;;;;;;;;;23.00;19.25;;;;;;;;5098494;27;46208;-80
2023/04/29 11:28:50;;;;;;;;;25.75;22.75;;;;;;;;5106860;27;45402;-80
2023/04/29 11:31:16;;;;;;;;;21.50;20.00;;;;;;;;5099169;27;45462;-82
2023/04/29 11:33:41;;;;;;;;;27.50;25.75;;;;;;;;5106250;27;45307;-84
2023/04/29 11:36:06;;;;;;;;;22.50;22.00;;;;;;;;5116849;27;45423;-83
2023/04/29 11:38:32;;;;;;;;;24.00;22.25;;;;;;;;5103013;27;45331;-83
2023/04/29 11:40:58;;;;;;;;;23.25;20.25;;;;;;;;5107677;27;45837;-82
2023/04/29 11:43:24;;;;;;;;;24.50;19.00;;;;;;;;5123045;27;45223;-84
2023/04/29 11:45:50;;;;;;;;;28.00;22.25;;;;;;;;5120201;27;45682;-84
2023/04/29 11:48:23;;;;;;;;;24.50;22.00;;;;;;;;5102607;27;45367;-83
2023/04/29 11:50:52;;;;;;;;;18.25;17.75;;;;;;;;5109129;27;45528;-83
2023/04/29 11:53:21;;;;;;;;;24.50;20.25;;;;;;;;5109573;27;45390;-83
2023/04/29 11:55:46;;;;;;;;;23.50;22.00;;;;;;;;5113369;27;45304;-84
2023/04/29 11:58:13;;;;;;;;;21.25;18.50;;;;;;;;5100932;27;45370;-82
2023/04/29 12:00:38;;;;;;;;;21.25;18.00;;;;;;;;5103288;27;45376;-83
2023/04/29 12:03:12;;;;;;;;;18.50;16.00;;;;;;;;5108505;27;45405;-83
2023/04/29 12:05:37;;;;;;;;;22.25;20.75;;;;;;;;5106603;27;45692;-87
2023/04/29 12:08:02;;;;;;;;;24.25;21.25;;;;;;;;5108876;27;45541;-81
2023/04/29 12:10:27;;;;;;;;;23.25;23.25;;;;;;;;5099586;27;45425;-82
2023/04/29 12:12:53;;;;;;;;;24.75;23.75;;;;;;;;5111863;27;45350;-81
2023/04/29 12:15:18;;;;;;;;;25.00;23.75;;;;;;;;5104119;27;46359;-81
2023/04/29 12:17:45;;;;;;;;;22.00;19.75;;;;;;;;5105035;27;45356;-82
2023/04/29 12:20:11;;;;;;;;;21.00;20.00;;;;;;;;5096308;27;45448;-82
2023/04/29 12:22:36;;;;;;;;;23.25;21.50;;;;;;;;5085793;27;45594;-81
2023/04/29 12:25:05;;;;;;;;;18.75;18.00;;;;;;;;5100110;27;45473;-81
2023/04/29 12:27:31;;;;;;;;;24.25;18.00;;;;;;;;5110015;27;45355;-76
2023/04/29 12:29:56;;;;;;;;;19.50;19.50;;;;;;;;5101723;27;45436;-81
2023/04/29 12:32:22;;;;;;;;;23.00;19.50;;;;;;;;5114231;27;45416;-82
2023/04/29 12:34:49;;;;;;;;;20.75;19.00;;;;;;;;5088038;27;45758;-81
2023/04/29 12:37:14;;;;;;;;;22.50;21.25;;;;;;;;5075325;27;45877;-78
2023/04/29 12:39:40;;;;;;;;;23.00;22.50;;;;;;;;5071345;27;45613;-80
2023/04/29 12:42:05;;;;;;;;;10.00;10.00;;;;;;;;5093742;27;45501;-79
2023/04/29 12:44:36;;;;;;;;;24.25;23.00;;;;;;;;5100141;27;45383;-80
2023/04/29 12:47:12;;;;;;;;;27.75;25.75;;;;;;;;5091129;27;46385;-80
2023/04/29 12:49:40;;;;;;;;;25.25;22.25;;;;;;;;5081801;27;45310;-81
2023/04/29 12:52:08;;;;;;;;;22.00;21.50;;;;;;;;5093191;27;45453;-79
2023/04/29 12:54:35;;;;;;;;;29.50;28.75;;;;;;;;5078751;27;46507;-80
2023/04/29 12:57:01;;;;;;;;;30.50;25.00;;;;;;;;5084915;27;45352;-80
2023/04/29 12:59:26;;;;;;;;;26.50;25.75;;;;;;;;5098063;27;45438;-82
2023/04/29 13:01:51;;;;;;;;;29.50;27.25;;;;;;;;5078443;27;45589;-79
2023/04/29 13:04:17;;;;;;;;;25.00;24.75;;;;;;;;5071187;27;46176;-80
2023/04/29 13:06:42;;;;;;;;;23.75;23.00;;;;;;;;5092969;27;45607;-82
2023/04/29 13:09:10;;;;;;;;;22.00;22.00;;;;;;;;5085738;27;45563;-79
2023/04/29 13:11:36;;;;;;;;;21.50;19.25;;;;;;;;5080311;27;45414;-79
2023/04/29 13:14:01;;;;;;;;;19.50;18.25;;;;;;;;5094975;27;46208;-79
2023/04/29 13:16:26;;;;;;;;;22.00;20.25;;;;;;;;5086350;27;45603;-79
2023/04/29 13:18:52;;;;;;;;;24.25;21.50;;;;;;;;5085486;27;45922;-80
2023/04/29 13:21:17;;;;;;;;;29.25;25.00;;;;;;;;5090173;27;45390;-81
2023/04/29 13:23:42;;;;;;;;;24.50;21.50;;;;;;;;5102107;27;46699;-81
2023/04/29 13:26:07;;;;;;;;;19.25;19.25;;;;;;;;5097483;27;45433;-80
2023/04/29 13:28:33;;;;;;;;;22.50;22.50;;;;;;;;5077788;27;45525;-80
2023/04/29 13:30:58;;;;;;;;;20.25;18.75;;;;;;;;5074834;27;45675;-79
2023/04/29 13:33:23;;;;;;;;;21.50;19.00;;;;;;;;5074694;27;48457;-81
2023/04/29 13:35:49;;;;;;;;;19.50;19.00;;;;;;;;5110325;27;45445;-78
2023/04/29 13:38:14;;;;;;;;;20.75;20.25;;;;;;;;5089809;27;45815;-79
2023/04/29 13:40:39;;;;;;;;;22.00;20.00;;;;;;;;5095832;27;45493;-80
2023/04/29 13:43:05;;;;;;;;;24.75;23.75;;;;;;;;5087088;27;45592;-79
2023/04/29 13:45:31;;;;;;;;;19.75;19.50;;;;;;;;5071062;27;45504;-80
2023/04/29 13:47:56;;;;;;;;;22.75;18.25;;;;;;;;5091936;27;45343;-80
2023/04/29 13:50:21;;;;;;;;;22.00;20.25;;;;;;;;5087496;27;45386;-78
2023/04/29 13:52:47;;;;;;;;;27.25;25.00;;;;;;;;5082467;27;45956;-84
2023/04/29 13:55:12;;;;;;;;;25.75;20.50;;;;;;;;5084345;27;45236;-79
2023/04/29 13:57:37;;;;;;;;;23.00;23.00;;;;;;;;5090475;27;45327;-79
2023/04/29 14:00:02;;;;;;;;;21.00;19.25;;;;;;;;5086683;27;46944;-77
2023/04/29 14:02:28;;;;;;;;;22.50;19.25;;;;;;;;5086052;27;45739;-78
2023/04/29 14:04:54;;;;;;;;;18.50;18.50;;;;;;;;5081849;27;45588;-77
2023/04/29 14:07:19;;;;;;;;;25.25;20.25;;;;;;;;5078468;27;45339;-78
2023/04/29 14:09:45;;;;;;;;;21.25;21.25;;;;;;;;5090816;27;45435;-78
2023/04/29 14:12:10;;;;;;;;;20.00;18.25;;;;;;;;5088185;27;46102;-79
2023/04/29 14:14:35;;;;;;;;;22.75;18.25;;;;;;;;5088230;27;45445;-79
2023/04/29 14:17:01;;;;;;;;;20.25;19.75;;;;;;;;5084104;27;45465;-79